createdAt,value
2018-07-13T00:02:26.755Z,72.90
2018-07-13T00:04:56.064Z,73.20
2018-07-13T00:07:25.392Z,73.30
2018-07-13T00:09:54.599Z,73.50
2018-07-13T00:12:23.831Z,73.70
2018-07-13T00:15:05.940Z,74.40
2018-07-13T00:20:04.256Z,74.50
2018-07-13T00:22:33.514Z,74.80
2018-07-13T00:25:02.754Z,75.30
2018-07-13T00:27:31.871Z,75.30
2018-07-13T00:30:01.106Z,75.30
2018-07-13T00:32:30.398Z,75.60
2018-07-13T00:34:59.675Z,75.70
2018-07-13T00:37:28.896Z,75.80
2018-07-13T00:39:58.141Z,75.90
2018-07-13T00:44:56.118Z,76.20
2018-07-13T00:47:25.323Z,76.50
2018-07-13T00:49:54.510Z,76.60
2018-07-13T00:52:23.688Z,76.60
2018-07-13T00:54:52.911Z,76.80
2018-07-13T00:57:22.134Z,77.70
2018-07-13T00:59:51.371Z,77.00
2018-07-13T01:02:20.555Z,77.10
2018-07-13T01:04:49.739Z,77.10
2018-07-13T01:07:18.833Z,77.20
2018-07-13T01:09:48.035Z,77.50
2018-07-13T01:12:17.206Z,77.70
2018-07-13T01:14:46.451Z,77.90
2018-07-13T01:17:15.785Z,78.10
2018-07-13T01:19:46.412Z,78.20
2018-07-13T01:22:16.115Z,78.30
2018-07-13T01:24:45.405Z,78.40
2018-07-13T01:27:14.612Z,78.50
2018-07-13T01:29:43.938Z,78.70
2018-07-13T01:32:15.352Z,78.90
2018-07-13T01:34:44.708Z,79.00
2018-07-13T01:37:13.887Z,79.20
2018-07-13T01:39:43.161Z,79.30
2018-07-13T01:42:12.375Z,79.40
2018-07-13T01:44:41.622Z,79.40
2018-07-13T01:47:10.762Z,79.40
2018-07-13T01:49:39.993Z,79.50
2018-07-13T01:55:19.200Z,79.70
2018-07-13T01:57:48.335Z,79.90
2018-07-13T02:00:17.540Z,80.10
2018-07-13T02:02:46.783Z,80.10
2018-07-13T02:05:15.980Z,80.30
2018-07-13T02:07:45.262Z,80.50
2018-07-13T02:10:14.708Z,80.50
2018-07-13T02:12:43.904Z,80.60
2018-07-13T02:15:13.581Z,80.80
2018-07-13T02:17:42.824Z,81.00
2018-07-13T02:20:12.053Z,80.90
2018-07-13T02:22:41.251Z,81.10
2018-07-13T02:25:10.466Z,81.10
2018-07-13T02:27:39.663Z,81.30
2018-07-13T02:30:08.924Z,81.40
2018-07-13T02:32:38.618Z,81.50
2018-07-13T02:35:07.872Z,81.70
2018-07-13T02:37:37.140Z,81.80
2018-07-13T02:40:06.421Z,81.90
2018-07-13T02:42:35.644Z,82.40
2018-07-13T02:45:04.887Z,82.10
2018-07-13T02:47:34.069Z,82.00
2018-07-13T02:50:03.348Z,82.20
2018-07-13T02:52:32.524Z,82.20
2018-07-13T02:57:30.539Z,82.20
2018-07-13T02:59:59.902Z,82.30
2018-07-13T03:02:29.024Z,82.40
2018-07-13T03:04:58.182Z,82.50
2018-07-13T03:07:27.303Z,82.70
2018-07-13T03:09:56.447Z,83.00
2018-07-13T03:12:25.693Z,83.40
2018-07-13T03:14:54.915Z,83.40
2018-07-13T03:17:24.119Z,84.20
2018-07-13T03:19:53.315Z,83.50
2018-07-13T03:22:22.542Z,84.00
2018-07-13T03:24:51.790Z,84.20
2018-07-13T03:27:21.134Z,84.40
2018-07-13T03:29:50.358Z,84.60
2018-07-13T03:32:19.599Z,84.60
2018-07-13T03:39:46.511Z,84.60
2018-07-13T03:42:15.759Z,84.60
2018-07-13T03:44:44.912Z,84.70
2018-07-13T03:47:14.132Z,84.70
2018-07-13T03:49:43.273Z,84.80
2018-07-13T03:52:12.426Z,85.60
2018-07-13T03:54:41.614Z,84.80
2018-07-13T03:57:10.818Z,84.90
2018-07-13T03:59:39.962Z,84.80
2018-07-13T04:02:09.479Z,84.80
2018-07-13T04:04:38.681Z,84.70
2018-07-13T04:07:08.043Z,84.70
2018-07-13T04:09:37.163Z,84.80
2018-07-13T04:12:06.614Z,85.00
2018-07-13T04:14:35.926Z,85.10
2018-07-13T04:17:09.590Z,85.00
2018-07-13T04:19:41.975Z,85.10
2018-07-13T04:22:11.196Z,85.20
2018-07-13T04:24:40.558Z,85.20
2018-07-13T04:27:09.921Z,85.10
2018-07-13T04:29:39.295Z,85.20
2018-07-13T04:32:08.516Z,85.90
2018-07-13T04:34:37.763Z,85.40
2018-07-13T04:37:07.080Z,85.40
2018-07-13T04:39:36.281Z,85.40
2018-07-13T04:44:34.229Z,85.80
2018-07-13T04:47:04.572Z,85.90
2018-07-13T04:49:33.915Z,86.20
2018-07-13T04:52:03.223Z,86.30
2018-07-13T04:54:32.674Z,86.50
2018-07-13T04:57:02.002Z,86.50
2018-07-13T04:59:31.259Z,86.60
2018-07-13T05:02:01.656Z,86.50
2018-07-13T05:04:31.374Z,86.60
2018-07-13T05:07:00.664Z,86.50
2018-07-13T05:09:30.047Z,86.40
2018-07-13T05:11:59.291Z,86.30
2018-07-13T05:14:30.311Z,86.20
2018-07-13T05:17:18.433Z,85.90
2018-07-13T05:19:47.830Z,85.70
2018-07-13T05:22:17.207Z,85.30
2018-07-13T05:24:46.549Z,85.10
2018-07-13T05:27:15.939Z,84.60
2018-07-13T05:29:45.479Z,84.70
2018-07-13T05:32:14.994Z,84.70
2018-07-13T05:34:44.415Z,84.20
2018-07-13T05:37:13.823Z,84.00
2018-07-13T05:39:43.159Z,83.80
2018-07-13T05:42:12.554Z,83.50
2018-07-13T05:44:42.019Z,83.50
2018-07-13T05:47:11.366Z,83.30
2018-07-13T05:49:40.773Z,83.30
2018-07-13T05:52:12.154Z,83.30
2018-07-13T05:54:41.677Z,83.30
2018-07-13T05:57:11.899Z,83.00
2018-07-13T05:59:41.870Z,82.90
2018-07-13T06:02:11.398Z,82.70
2018-07-13T06:04:40.781Z,82.50
2018-07-13T06:07:10.090Z,82.20
2018-07-13T06:09:40.199Z,82.00
2018-07-13T06:12:16.455Z,81.70
2018-07-13T06:14:45.770Z,81.60
2018-07-13T06:17:15.427Z,81.50
2018-07-13T06:19:44.587Z,81.40
2018-07-13T06:22:13.828Z,81.10
2018-07-13T06:24:42.933Z,81.00
2018-07-13T06:27:12.263Z,80.80
2018-07-13T06:29:41.602Z,80.80
2018-07-13T06:32:11.238Z,81.40
2018-07-13T06:34:40.567Z,80.60
2018-07-13T06:37:09.919Z,80.20
2018-07-13T06:39:39.487Z,80.00
2018-07-13T06:42:08.874Z,79.50
2018-07-13T06:44:38.102Z,79.30
2018-07-13T06:49:36.167Z,78.70
2018-07-13T06:52:05.428Z,78.30
2018-07-13T06:54:34.659Z,77.90
2018-07-13T06:57:03.905Z,77.50
2018-07-13T06:59:33.191Z,77.10
2018-07-13T07:02:02.519Z,76.70
2018-07-13T07:04:36.852Z,76.30
2018-07-13T07:07:10.359Z,76.10
2018-07-13T07:09:40.936Z,75.70
2018-07-13T07:12:17.303Z,75.40
2018-07-13T07:14:46.560Z,75.10
2018-07-13T07:19:44.468Z,74.60
2018-07-13T07:22:13.752Z,74.20
2018-07-13T07:24:43.098Z,73.90
2018-07-13T07:27:12.398Z,73.50
2018-07-13T07:29:41.659Z,73.40
2018-07-13T07:32:10.926Z,73.20
2018-07-13T07:34:40.627Z,72.80
2018-07-13T07:37:09.933Z,72.30
2018-07-13T07:39:49.381Z,71.90
2018-07-13T07:42:18.971Z,72.50
2018-07-13T07:44:48.459Z,71.40
2018-07-13T07:47:17.646Z,71.00
2018-07-13T07:49:47.241Z,70.20
2018-07-13T07:52:16.397Z,69.70
2018-07-13T07:54:45.622Z,69.30
2018-07-13T07:57:14.868Z,69.20
2018-07-13T07:59:44.877Z,69.00
2018-07-13T08:02:14.167Z,68.60
2018-07-13T08:04:43.414Z,68.10
2018-07-13T08:07:13.080Z,67.20
2018-07-13T08:09:41.906Z,67.30
2018-07-13T08:12:11.155Z,66.80
2018-07-13T08:14:40.560Z,66.60
2018-07-13T08:17:09.897Z,66.40
2018-07-13T08:19:39.167Z,66.00
2018-07-13T08:22:26.848Z,65.70
2018-07-13T08:24:57.859Z,65.10
2018-07-13T08:27:35.907Z,64.90
2018-07-13T08:30:06.181Z,64.30
2018-07-13T08:32:35.396Z,63.60
2018-07-13T08:35:04.646Z,63.00
2018-07-13T08:40:02.566Z,62.50
2018-07-13T08:42:32.011Z,62.10
2018-07-13T08:45:02.250Z,61.20
2018-07-13T08:47:31.592Z,61.10
2018-07-13T08:50:00.935Z,59.60
2018-07-13T08:52:30.573Z,59.00
2018-07-13T08:55:06.867Z,58.80
2018-07-13T08:57:36.204Z,58.80
2018-07-13T09:00:06.060Z,58.50
2018-07-13T09:02:35.331Z,58.30
2018-07-13T09:05:04.728Z,58.00
2018-07-13T09:07:35.677Z,57.70
2018-07-13T09:12:33.899Z,56.90
2018-07-13T09:15:03.239Z,56.40
2018-07-13T09:17:32.523Z,55.90
2018-07-13T09:20:01.888Z,55.80
2018-07-13T09:22:31.175Z,55.50
2018-07-13T09:25:00.555Z,55.20
2018-07-13T09:27:30.084Z,54.80
2018-07-13T09:30:00.358Z,55.00
2018-07-13T09:32:29.747Z,55.40
2018-07-13T09:34:59.157Z,56.00
2018-07-13T09:37:28.512Z,56.30
2018-07-13T09:39:58.525Z,56.70
2018-07-13T09:42:27.828Z,57.10
2018-07-13T09:44:57.658Z,57.10
2018-07-13T09:47:26.991Z,57.00
2018-07-13T09:49:59.684Z,56.50
2018-07-13T09:52:28.967Z,56.10
2018-07-13T09:54:58.720Z,56.10
2018-07-13T09:57:27.971Z,55.60
2018-07-13T09:59:57.890Z,55.20
2018-07-13T10:05:09.359Z,55.00
2018-07-13T10:07:38.744Z,54.80
2018-07-13T10:10:08.182Z,54.50
2018-07-13T10:12:39.112Z,54.30
2018-07-13T10:17:40.037Z,53.90
2018-07-13T10:20:09.304Z,53.60
2018-07-13T10:22:38.914Z,53.40
2018-07-13T10:25:08.262Z,53.50
2018-07-13T10:27:38.992Z,53.80
2018-07-13T10:30:11.134Z,54.10
2018-07-13T10:32:41.228Z,54.00
2018-07-13T10:35:21.484Z,54.00
2018-07-13T10:37:51.266Z,54.20
2018-07-13T10:40:21.243Z,54.10
2018-07-13T10:42:50.992Z,54.10
2018-07-13T10:45:20.976Z,54.40
2018-07-13T10:47:50.268Z,54.50
2018-07-13T10:50:19.508Z,54.10
2018-07-13T10:52:48.719Z,53.60
2018-07-13T10:55:18.204Z,53.50
2018-07-13T10:57:48.073Z,52.70
2018-07-13T11:00:17.529Z,52.20
2018-07-13T11:02:47.665Z,51.80
2018-07-13T11:05:17.468Z,51.80
2018-07-13T11:07:47.256Z,51.50
2018-07-13T11:10:17.020Z,52.20
2018-07-13T11:12:46.572Z,51.60
2018-07-13T11:15:16.657Z,51.10
2018-07-13T11:17:51.421Z,51.10
2018-07-13T11:20:21.149Z,51.00
2018-07-13T11:22:51.567Z,51.10
2018-07-13T11:25:23.238Z,51.60
2018-07-13T11:27:54.897Z,51.60
2018-07-13T11:30:27.669Z,51.70
2018-07-13T11:32:58.829Z,51.90
2018-07-13T11:35:29.582Z,52.00
2018-07-13T11:37:58.968Z,51.50
2018-07-13T11:40:28.165Z,51.00
2018-07-13T11:42:57.491Z,51.10
2018-07-13T11:45:27.059Z,51.50
2018-07-13T11:48:07.616Z,51.00
2018-07-13T11:53:05.844Z,48.90
2018-07-13T11:55:35.027Z,49.20
2018-07-13T11:58:04.241Z,49.40
2018-07-13T12:00:33.581Z,50.10
2018-07-13T12:03:02.863Z,50.10
2018-07-13T12:06:35.167Z,50.60
2018-07-13T12:09:05.036Z,50.30
2018-07-13T12:11:34.322Z,50.30
2018-07-13T12:14:03.535Z,50.30
2018-07-13T12:16:32.831Z,50.30
2018-07-13T12:19:02.287Z,50.10
2018-07-13T12:21:32.127Z,49.80
2018-07-13T12:24:01.278Z,49.80
2018-07-13T12:26:30.592Z,49.50
2018-07-13T12:28:59.703Z,49.20
2018-07-13T12:31:28.991Z,49.70
2018-07-13T12:33:58.842Z,48.90
2018-07-13T12:36:37.642Z,48.30
2018-07-13T12:39:08.490Z,48.10
2018-07-13T12:41:39.996Z,48.10
2018-07-13T12:44:10.373Z,48.10
2018-07-13T12:46:40.024Z,48.20
2018-07-13T12:49:09.586Z,48.30
2018-07-13T12:51:38.923Z,48.30
2018-07-13T12:54:08.553Z,48.40
2018-07-13T12:56:39.287Z,48.80
2018-07-13T12:59:08.595Z,48.90
2018-07-13T13:01:38.313Z,48.90
2018-07-13T13:04:07.903Z,49.00
2018-07-13T13:06:37.147Z,49.10
2018-07-13T13:09:06.633Z,48.60
2018-07-13T13:11:35.878Z,48.30
2018-07-13T13:14:05.269Z,48.00
2018-07-13T13:16:34.515Z,47.80
2018-07-13T13:19:03.690Z,47.60
2018-07-13T13:21:32.888Z,47.30
2018-07-13T13:24:02.095Z,46.90
2018-07-13T13:26:31.261Z,46.50
2018-07-13T13:29:00.495Z,46.30
2018-07-13T13:31:29.697Z,45.80
2018-07-13T13:33:58.860Z,45.00
2018-07-13T13:36:28.404Z,44.60
2018-07-13T13:38:57.691Z,44.40
2018-07-13T13:41:26.890Z,44.60
2018-07-13T13:43:56.132Z,44.50
2018-07-13T13:46:25.364Z,44.20
2018-07-13T13:48:54.619Z,44.00
2018-07-13T13:51:23.749Z,43.80
2018-07-13T13:53:52.931Z,43.50
2018-07-13T13:56:22.071Z,43.50
2018-07-13T13:58:51.523Z,44.00
2018-07-13T14:01:20.859Z,44.20
2018-07-13T14:03:50.126Z,44.20
2018-07-13T14:06:19.300Z,44.60
2018-07-13T14:08:48.561Z,44.70
2018-07-13T14:11:35.431Z,43.90
2018-07-13T14:14:04.656Z,44.50
2018-07-13T14:16:34.019Z,44.40
2018-07-13T14:19:03.245Z,44.20
2018-07-13T14:21:32.563Z,44.30
2018-07-13T14:24:01.749Z,44.50
2018-07-13T14:26:30.986Z,44.60
2018-07-13T14:29:02.265Z,44.30
2018-07-13T14:31:31.488Z,43.90
2018-07-13T14:34:00.753Z,43.50
2018-07-13T14:36:29.947Z,43.00
2018-07-13T14:38:59.187Z,43.20
2018-07-13T14:41:28.547Z,42.50
2018-07-13T14:43:57.800Z,42.50
2018-07-13T14:46:28.111Z,42.60
2018-07-13T14:48:57.452Z,42.80
2018-07-13T14:51:27.272Z,43.00
2018-07-13T14:53:56.567Z,43.40
2018-07-13T14:56:25.848Z,43.40
2018-07-13T14:58:55.104Z,43.00
2018-07-13T15:01:24.428Z,43.00
2018-07-13T15:03:53.758Z,43.20
2018-07-13T15:06:23.088Z,43.70
2018-07-13T15:08:52.298Z,44.60
2018-07-13T15:11:21.522Z,44.10
2018-07-13T15:13:50.747Z,44.20
2018-07-13T15:16:20.279Z,45.00
2018-07-13T15:18:49.487Z,45.60
2018-07-13T15:21:18.643Z,45.90
2018-07-13T15:23:48.604Z,45.90
2018-07-13T15:26:17.843Z,45.90
2018-07-13T15:28:47.040Z,46.00
2018-07-13T15:31:16.189Z,46.30
2018-07-13T15:33:45.444Z,46.50
2018-07-13T15:36:14.683Z,46.70
2018-07-13T15:38:43.980Z,47.00
2018-07-13T15:41:13.167Z,47.40
2018-07-13T15:43:42.440Z,47.70
2018-07-13T15:46:11.708Z,47.80
2018-07-13T15:48:41.003Z,48.10
2018-07-13T15:51:10.336Z,48.40
2018-07-13T15:53:39.655Z,48.80
2018-07-13T15:56:09.019Z,49.00
2018-07-13T15:58:38.263Z,49.00
2018-07-13T16:01:07.479Z,49.00
2018-07-13T16:03:37.011Z,48.90
2018-07-13T16:06:06.264Z,48.80
2018-07-13T16:08:35.448Z,49.00
2018-07-13T16:14:00.191Z,49.40
2018-07-13T16:16:29.467Z,49.20
2018-07-13T16:18:58.732Z,48.60
2018-07-13T16:21:27.951Z,48.60
2018-07-13T16:23:57.236Z,48.60
2018-07-13T16:26:26.536Z,48.40
2018-07-13T16:28:55.722Z,48.60
2018-07-13T16:31:24.968Z,48.00
2018-07-13T16:36:23.416Z,46.90
2018-07-13T16:38:52.810Z,46.90
2018-07-13T16:41:22.563Z,46.80
2018-07-13T16:43:52.003Z,47.20
2018-07-13T16:46:21.480Z,47.50
2018-07-13T16:48:50.884Z,47.90
2018-07-13T16:51:22.508Z,48.00
2018-07-13T16:53:51.843Z,48.10
2018-07-13T16:56:21.316Z,48.60
2018-07-13T16:58:50.715Z,48.80
2018-07-13T17:01:20.023Z,48.40
2018-07-13T17:03:49.357Z,48.60
2018-07-13T17:06:18.708Z,48.80
2018-07-13T17:08:48.051Z,49.10
2018-07-13T17:11:17.400Z,49.00
2018-07-13T17:13:46.636Z,48.70
2018-07-13T17:16:16.031Z,48.60
2018-07-13T17:18:49.328Z,48.80
2018-07-13T17:21:18.568Z,48.90
2018-07-13T17:23:47.767Z,49.20
2018-07-13T17:26:39.113Z,49.50
2018-07-13T17:29:08.761Z,49.90
2018-07-13T17:31:38.075Z,50.40
2018-07-13T17:34:07.332Z,50.20
2018-07-13T17:36:36.560Z,49.90
2018-07-13T17:39:06.555Z,49.70
2018-07-13T17:41:36.433Z,49.60
2018-07-13T17:44:05.673Z,50.30
2018-07-13T17:46:35.554Z,50.70
2018-07-13T17:49:05.120Z,50.80
2018-07-13T17:51:35.001Z,51.00
2018-07-13T17:54:27.705Z,51.70
2018-07-13T17:56:56.991Z,52.40
2018-07-13T17:59:26.229Z,52.70
2018-07-13T18:01:55.561Z,52.70
2018-07-13T18:04:24.803Z,52.50
2018-07-13T18:06:54.170Z,52.80
2018-07-13T18:09:23.338Z,53.10
2018-07-13T18:11:52.599Z,53.30
2018-07-13T18:14:21.809Z,53.50
2018-07-13T18:16:51.035Z,54.00
2018-07-13T18:19:20.333Z,54.80
2018-07-13T18:21:50.664Z,55.60
2018-07-13T18:24:19.915Z,55.90
2018-07-13T18:27:09.317Z,56.40
2018-07-13T18:29:38.613Z,56.70
2018-07-13T18:32:07.928Z,56.50
2018-07-13T18:34:37.071Z,56.40
2018-07-13T18:37:13.675Z,56.70
2018-07-13T18:39:43.338Z,57.00
2018-07-13T18:42:12.852Z,57.60
2018-07-13T18:44:42.395Z,58.60
2018-07-13T18:47:12.295Z,60.00
2018-07-13T18:49:42.643Z,62.00
2018-07-13T18:52:11.971Z,63.50
2018-07-13T18:54:41.266Z,64.80
2018-07-13T18:57:10.616Z,66.00
2018-07-13T18:59:39.891Z,67.40
2018-07-13T19:05:03.257Z,70.60
2018-07-13T19:07:40.083Z,72.70
2018-07-13T19:10:09.652Z,74.30
2018-07-13T19:12:56.042Z,75.60
2018-07-13T19:15:26.807Z,76.80
2018-07-13T19:17:57.262Z,77.20
2018-07-13T19:20:26.591Z,77.80
2018-07-13T19:22:56.151Z,77.80
2018-07-13T19:25:25.562Z,78.60
2018-07-13T19:27:55.183Z,79.30
2018-07-13T19:30:24.953Z,80.00
2018-07-13T19:32:54.239Z,80.70
2018-07-13T19:35:23.463Z,81.10
2018-07-13T19:37:52.827Z,81.50
2018-07-13T19:40:21.938Z,82.00
2018-07-13T19:42:51.419Z,82.40
2018-07-13T19:45:21.927Z,82.60
2018-07-13T19:47:51.170Z,83.00
2018-07-13T19:50:20.430Z,83.20
2018-07-13T19:52:49.684Z,83.40
2018-07-13T19:55:19.052Z,83.60
2018-07-13T19:57:48.334Z,83.70
2018-07-13T20:00:17.510Z,84.10
2018-07-13T20:02:46.827Z,84.50
2018-07-13T20:05:16.120Z,84.90
2018-07-13T20:07:46.248Z,85.00
2018-07-13T20:10:15.487Z,85.50
2018-07-13T20:12:44.795Z,85.70
2018-07-13T20:15:14.155Z,86.00
2018-07-13T20:17:43.487Z,86.30
2018-07-13T20:20:12.847Z,86.90
2018-07-13T20:22:42.134Z,86.90
2018-07-13T20:25:11.363Z,86.90
2018-07-13T20:27:40.623Z,86.80
2018-07-13T20:30:09.936Z,88.00
2018-07-13T20:32:39.208Z,87.50
2018-07-13T20:35:08.416Z,87.80
2018-07-13T20:37:37.676Z,87.90
2018-07-13T20:40:06.887Z,88.00
2018-07-13T20:42:36.179Z,89.10
2018-07-13T20:45:05.620Z,88.10
2018-07-13T20:47:35.304Z,88.30
2018-07-13T20:50:04.664Z,88.40
2018-07-13T20:55:02.819Z,88.50
2018-07-13T20:57:32.123Z,88.60
2018-07-13T21:00:02.214Z,88.70
2018-07-13T21:02:31.540Z,88.70
2018-07-13T21:05:01.027Z,88.70
2018-07-13T21:07:31.673Z,88.80
2018-07-13T21:10:00.880Z,88.90
2018-07-13T21:12:30.076Z,89.00
2018-07-13T21:14:59.623Z,89.00
2018-07-13T21:17:28.872Z,89.00
2018-07-13T21:19:58.043Z,89.20
2018-07-13T21:22:27.254Z,89.30
2018-07-13T21:24:56.555Z,89.60
2018-07-13T21:27:25.893Z,89.70
2018-07-13T21:29:55.426Z,89.80
2018-07-13T21:32:24.765Z,90.00
2018-07-13T21:34:56.405Z,90.00
2018-07-13T21:37:35.523Z,90.00
2018-07-13T21:40:04.852Z,90.00
2018-07-13T21:42:34.175Z,90.00
2018-07-13T21:45:03.387Z,90.00
2018-07-13T21:47:32.745Z,90.00
2018-07-13T21:50:01.960Z,90.10
2018-07-13T21:52:31.236Z,90.00
2018-07-13T21:55:00.466Z,89.60
2018-07-13T21:57:29.719Z,90.10
2018-07-13T21:59:58.952Z,90.10
2018-07-13T22:02:28.254Z,90.00
2018-07-13T22:07:26.268Z,90.10
2018-07-13T22:09:55.599Z,90.10
2018-07-13T22:12:24.837Z,90.10
2018-07-13T22:14:54.251Z,90.10
2018-07-13T22:17:23.502Z,90.20
2018-07-13T22:19:52.751Z,90.20
2018-07-13T22:22:21.940Z,90.20
2018-07-13T22:24:51.212Z,90.20
2018-07-13T22:27:20.451Z,90.20
2018-07-13T22:29:49.808Z,90.20
2018-07-13T22:34:47.721Z,90.20
2018-07-13T22:37:16.795Z,90.20
2018-07-13T22:39:46.080Z,90.20
2018-07-13T22:42:15.283Z,90.20
2018-07-13T22:44:44.487Z,90.20
2018-07-13T22:47:13.703Z,90.20
2018-07-13T22:49:43.028Z,90.30
2018-07-13T22:52:12.253Z,90.30
2018-07-13T22:54:41.497Z,90.40
2018-07-13T22:57:10.682Z,90.50
2018-07-13T22:59:39.891Z,90.50
2018-07-13T23:02:09.207Z,90.50
2018-07-13T23:04:38.501Z,90.50
2018-07-13T23:07:07.692Z,90.50
2018-07-13T23:09:36.920Z,90.40
2018-07-13T23:12:06.140Z,90.40
2018-07-13T23:14:35.327Z,90.80
2018-07-13T23:17:04.611Z,90.30
2018-07-13T23:19:33.847Z,90.40
2018-07-13T23:22:03.099Z,90.40
2018-07-13T23:24:32.351Z,90.40
2018-07-13T23:27:01.573Z,90.30
2018-07-13T23:29:30.855Z,90.30
2018-07-13T23:32:00.044Z,90.30
2018-07-13T23:34:29.291Z,90.40
2018-07-13T23:36:58.516Z,90.40
2018-07-13T23:39:27.683Z,90.30
2018-07-13T23:41:56.827Z,90.40
2018-07-13T23:44:26.096Z,90.30
2018-07-13T23:46:55.334Z,90.30
2018-07-13T23:49:24.556Z,90.40
2018-07-13T23:51:53.783Z,90.70
2018-07-13T23:54:22.930Z,90.40
2018-07-13T23:56:52.525Z,90.50
2018-07-13T23:59:21.755Z,90.50
